Time;durP1;ratioP1;P1;durP2;ratioP2;P2;SDS_P1;SDS_P2;PMS_P1;PMS_P2;Temp;Humidity;BMP_temperature;BMP_pressure;BME280_temperature;BME280_humidity;BME280_pressure;Samples;Min_cycle;Max_cycle;Signal;HPM_P1;HPM_P2
2022/01/09 00:01:33;;;;;;;12.90;6.18;;;1.20;99.90;;;;;;5017650;28;20117;-55
2022/01/09 00:03:59;;;;;;;15.32;7.05;;;1.10;99.90;;;;;;5035034;28;20041;-54
2022/01/09 00:06:24;;;;;;;12.38;5.72;;;1.20;99.90;;;;;;5017628;28;20022;-54
2022/01/09 00:08:50;;;;;;;18.27;7.93;;;1.30;99.90;;;;;;5018513;28;20026;-55
2022/01/09 00:11:18;;;;;;;16.02;7.97;;;1.40;99.90;;;;;;5023789;28;20121;-52
2022/01/09 00:13:45;;;;;;;14.68;7.70;;;1.30;99.90;;;;;;5016987;28;20033;-53
2022/01/09 00:16:11;;;;;;;12.88;6.25;;;1.30;99.90;;;;;;5017580;28;20043;-56
2022/01/09 00:18:36;;;;;;;15.85;7.43;;;1.30;99.90;;;;;;5051683;28;20080;-52
2022/01/09 00:21:06;;;;;;;18.35;7.60;;;1.30;99.90;;;;;;5019769;28;20116;-56
2022/01/09 00:23:33;;;;;;;17.23;8.05;;;1.40;99.90;;;;;;5022289;28;20033;-54
2022/01/09 00:25:59;;;;;;;16.38;8.02;;;1.50;99.90;;;;;;5050257;28;20082;-54
2022/01/09 00:28:25;;;;;;;18.33;8.20;;;1.50;99.90;;;;;;5034552;28;20018;-53
2022/01/09 00:30:50;;;;;;;19.20;8.68;;;1.60;99.90;;;;;;5016738;28;20071;-52
2022/01/09 00:33:20;;;;;;;15.98;7.85;;;1.70;99.90;;;;;;5053157;28;20017;-53
2022/01/09 00:35:47;;;;;;;14.50;7.20;;;1.90;99.90;;;;;;5018503;28;20014;-54
2022/01/09 00:38:13;;;;;;;19.92;8.45;;;1.70;99.90;;;;;;5023644;28;20044;-56
2022/01/09 00:40:38;;;;;;;13.75;6.90;;;1.70;99.90;;;;;;5054203;28;20060;-53
2022/01/09 00:43:08;;;;;;;12.35;6.32;;;1.80;99.90;;;;;;5054211;28;20052;-53
2022/01/09 00:45:41;;;;;;;14.73;6.78;;;1.70;99.90;;;;;;5054158;28;20021;-55
2022/01/09 00:48:08;;;;;;;12.23;6.65;;;1.60;99.90;;;;;;5036234;28;20119;-51
2022/01/09 00:50:36;;;;;;;11.05;6.25;;;1.80;99.90;;;;;;5036554;28;20048;-52
2022/01/09 00:53:03;;;;;;;12.65;6.20;;;1.80;99.90;;;;;;5054096;28;20013;-54
2022/01/09 00:55:29;;;;;;;15.48;6.32;;;1.80;99.90;;;;;;5053942;28;20079;-51
2022/01/09 00:57:54;;;;;;;14.80;6.85;;;1.80;99.90;;;;;;5036018;28;20017;-53
2022/01/09 01:00:20;;;;;;;14.63;6.53;;;1.90;99.90;;;;;;5035830;28;20056;-51
2022/01/09 01:02:46;;;;;;;11.95;6.50;;;2.00;99.90;;;;;;5053489;28;20032;-56
2022/01/09 01:05:12;;;;;;;12.77;6.07;;;2.00;99.90;;;;;;5033743;28;20024;-54
2022/01/09 01:07:38;;;;;;;16.65;6.22;;;2.00;99.90;;;;;;5017082;28;20108;-54
2022/01/09 01:10:04;;;;;;;13.00;6.47;;;2.00;99.90;;;;;;5024817;28;20108;-53
2022/01/09 01:12:33;;;;;;;13.00;6.25;;;2.10;99.90;;;;;;5018713;28;20036;-51
2022/01/09 01:14:59;;;;;;;11.30;6.15;;;2.10;99.90;;;;;;5003906;28;20037;-53
2022/01/09 01:17:25;;;;;;;14.68;6.05;;;2.20;99.90;;;;;;5017791;28;20032;-56
2022/01/09 01:19:53;;;;;;;12.20;6.07;;;2.10;99.90;;;;;;5020284;28;20040;-53
2022/01/09 01:22:18;;;;;;;11.30;5.72;;;2.10;99.90;;;;;;5033783;28;20029;-53
2022/01/09 01:24:46;;;;;;;16.45;6.15;;;2.40;99.90;;;;;;5015965;28;20216;-54
2022/01/09 01:27:12;;;;;;;10.43;6.65;;;2.30;99.90;;;;;;5033677;28;20112;-51
2022/01/09 01:29:38;;;;;;;12.30;5.57;;;2.20;99.90;;;;;;5015621;28;20047;-53
2022/01/09 01:32:04;;;;;;;16.42;6.40;;;2.10;99.90;;;;;;5015809;28;20025;-54
2022/01/09 01:37:52;;;;;;;15.18;6.28;;;2.30;99.90;;;;;;5033667;28;20020;-50
2022/01/09 01:40:19;;;;;;;11.93;6.10;;;2.30;99.90;;;;;;5015791;28;20029;-55
2022/01/09 01:42:49;;;;;;;11.05;6.15;;;2.30;99.90;;;;;;5016258;28;20057;-56
2022/01/09 01:45:16;;;;;;;10.70;6.40;;;2.40;99.90;;;;;;5016541;28;20029;-52
2022/01/09 01:47:42;;;;;;;14.43;7.03;;;2.50;99.90;;;;;;5033900;28;20033;-54
2022/01/09 01:50:12;;;;;;;15.93;6.30;;;2.50;99.90;;;;;;5016819;28;20044;-57
2022/01/09 01:52:45;;;;;;;19.52;7.38;;;2.60;99.90;;;;;;5017449;28;20030;-51
2022/01/09 01:55:12;;;;;;;19.38;7.40;;;2.80;99.90;;;;;;5016259;28;20021;-54
2022/01/09 01:57:40;;;;;;;9.85;5.80;;;2.70;99.90;;;;;;5012189;28;20033;-56
2022/01/09 02:00:09;;;;;;;14.93;6.20;;;2.60;99.90;;;;;;5012619;28;20108;-53
2022/01/09 02:02:35;;;;;;;17.42;7.07;;;2.70;99.90;;;;;;5012581;28;20094;-56
2022/01/09 02:05:00;;;;;;;14.32;7.07;;;3.00;99.90;;;;;;5013461;28;20061;-54
2022/01/09 02:07:28;;;;;;;10.20;5.53;;;2.90;99.90;;;;;;5012213;28;20113;-56
2022/01/09 02:09:54;;;;;;;10.27;4.90;;;2.90;99.90;;;;;;5013578;28;20026;-53
2022/01/09 02:12:20;;;;;;;9.90;5.63;;;2.80;99.90;;;;;;5012920;28;20041;-51
2022/01/09 02:14:47;;;;;;;10.07;5.28;;;2.80;99.90;;;;;;5016665;28;20465;-56
2022/01/09 02:17:18;;;;;;;13.63;6.35;;;2.90;99.90;;;;;;5016176;28;20018;-52
2022/01/09 02:19:57;;;;;;;10.40;5.50;;;2.70;99.90;;;;;;5018039;28;20018;-53
2022/01/09 02:22:25;;;;;;;7.65;4.93;;;2.70;99.90;;;;;;5017495;28;20595;-53
2022/01/09 02:24:52;;;;;;;8.63;4.50;;;2.80;99.90;;;;;;5017353;28;20030;-55
2022/01/09 02:27:18;;;;;;;6.38;4.32;;;2.70;99.90;;;;;;5017496;28;20105;-56
2022/01/09 02:29:47;;;;;;;8.25;4.30;;;2.70;99.90;;;;;;5017538;28;20038;-51
2022/01/09 02:32:16;;;;;;;6.63;3.95;;;2.70;99.90;;;;;;5016202;28;20113;-56
2022/01/09 02:34:45;;;;;;;8.88;4.47;;;2.60;99.90;;;;;;5015945;28;20052;-53
2022/01/09 02:37:10;;;;;;;8.10;4.30;;;2.70;99.90;;;;;;5016766;28;20129;-54
2022/01/09 02:39:36;;;;;;;5.55;3.67;;;2.70;99.90;;;;;;5016089;28;20034;-51
2022/01/09 02:42:02;;;;;;;7.20;4.32;;;2.80;99.90;;;;;;5016752;28;20058;-50
2022/01/09 02:44:27;;;;;;;8.75;3.42;;;2.90;99.90;;;;;;5016707;28;20171;-50
2022/01/09 02:49:19;;;;;;;6.68;3.78;;;2.70;99.90;;;;;;5016877;28;20057;-50
2022/01/09 02:51:46;;;;;;;8.50;4.40;;;2.60;99.90;;;;;;5016513;28;20026;-50
2022/01/09 02:56:56;;;;;;;9.10;4.20;;;2.70;99.90;;;;;;5017273;28;20076;-51
2022/01/09 02:59:22;;;;;;;6.43;3.75;;;2.70;99.90;;;;;;5015242;28;20053;-52
2022/01/09 03:01:47;;;;;;;6.25;3.58;;;2.90;99.90;;;;;;5016445;28;20030;-52
2022/01/09 03:04:13;;;;;;;5.93;3.67;;;2.70;99.90;;;;;;5015153;28;20030;-51
2022/01/09 03:06:39;;;;;;;10.07;3.92;;;2.60;99.90;;;;;;5016663;28;20025;-56
2022/01/09 03:09:06;;;;;;;7.20;3.97;;;2.60;99.90;;;;;;5015477;28;20029;-50
2022/01/09 03:11:33;;;;;;;7.80;4.45;;;2.60;99.90;;;;;;5016240;28;20022;-54
2022/01/09 03:13:59;;;;;;;10.02;4.70;;;2.70;99.90;;;;;;5015989;28;20080;-52
2022/01/09 03:16:24;;;;;;;8.60;5.20;;;2.80;99.90;;;;;;5014945;28;20022;-49
2022/01/09 03:18:50;;;;;;;7.82;4.78;;;2.70;99.90;;;;;;5014882;28;20036;-53
2022/01/09 03:21:15;;;;;;;8.70;4.75;;;2.70;99.90;;;;;;5014840;28;20021;-54
2022/01/09 03:23:41;;;;;;;9.85;4.97;;;2.80;99.90;;;;;;5014559;28;20029;-51
2022/01/09 03:26:09;;;;;;;12.00;4.60;;;2.90;99.90;;;;;;5015982;28;20026;-50
2022/01/09 03:28:35;;;;;;;8.60;4.90;;;3.00;99.90;;;;;;5014954;28;20065;-51
2022/01/09 03:31:01;;;;;;;10.38;5.57;;;2.90;99.90;;;;;;5015870;28;20030;-49
2022/01/09 03:33:26;;;;;;;14.07;6.22;;;2.90;99.90;;;;;;5014627;28;20025;-50
2022/01/09 03:35:52;;;;;;;11.70;5.70;;;3.10;99.90;;;;;;5015411;28;20022;-50
2022/01/09 03:38:17;;;;;;;13.20;6.03;;;3.30;99.90;;;;;;5015105;28;20025;-55
2022/01/09 03:40:43;;;;;;;20.65;7.07;;;3.40;99.90;;;;;;5015751;28;20033;-50
2022/01/09 03:43:09;;;;;;;14.43;6.28;;;3.50;99.90;;;;;;5016264;28;20108;-51
2022/01/09 03:45:34;;;;;;;12.82;5.97;;;3.60;99.90;;;;;;5014803;28;20118;-50
2022/01/09 03:48:00;;;;;;;13.52;6.25;;;3.70;99.90;;;;;;5014699;28;20038;-51
2022/01/09 03:50:26;;;;;;;11.57;5.47;;;3.70;99.90;;;;;;5015541;28;20054;-52
2022/01/09 03:52:52;;;;;;;14.35;5.85;;;3.60;99.90;;;;;;5015541;28;20018;-52
2022/01/09 03:55:21;;;;;;;12.88;5.90;;;3.50;99.90;;;;;;5015355;28;20033;-51
2022/01/09 03:57:48;;;;;;;10.18;4.38;;;3.50;99.90;;;;;;5014445;28;20022;-51
2022/01/09 04:00:16;;;;;;;8.05;4.30;;;3.40;99.90;;;;;;5014136;28;20439;-52
2022/01/09 04:02:43;;;;;;;9.52;4.20;;;3.30;99.90;;;;;;5015738;28;20018;-52
2022/01/09 04:05:09;;;;;;;9.40;4.43;;;3.30;99.90;;;;;;5015665;28;20440;-48
2022/01/09 04:07:37;;;;;;;10.27;4.63;;;3.40;99.90;;;;;;5014756;28;20022;-51
2022/01/09 04:10:04;;;;;;;11.32;4.97;;;3.50;99.90;;;;;;5014585;28;20061;-53
2022/01/09 04:12:34;;;;;;;5.22;2.75;;;3.60;99.90;;;;;;5013864;28;20058;-51
2022/01/09 04:15:07;;;;;;;6.90;2.78;;;3.60;99.90;;;;;;5015328;28;20029;-54
2022/01/09 04:20:02;;;;;;;3.28;1.77;;;3.70;99.90;;;;;;5015139;28;20018;-53
2022/01/09 04:22:27;;;;;;;2.17;1.38;;;3.80;99.90;;;;;;5013788;28;20045;-51
2022/01/09 04:24:53;;;;;;;2.72;1.42;;;3.90;99.90;;;;;;5014525;28;20061;-49
2022/01/09 04:27:18;;;;;;;2.47;1.50;;;3.90;99.90;;;;;;5015089;28;20034;-51
2022/01/09 04:29:44;;;;;;;2.38;1.20;;;3.90;99.90;;;;;;5013739;28;20477;-52
2022/01/09 04:32:10;;;;;;;4.53;1.58;;;3.90;99.90;;;;;;5014031;28;20084;-49
2022/01/09 04:34:35;;;;;;;2.35;1.55;;;4.00;99.90;;;;;;5014704;28;20141;-50
2022/01/09 04:37:01;;;;;;;3.03;1.90;;;4.00;99.90;;;;;;5014399;28;20018;-50
2022/01/09 04:39:28;;;;;;;0.50;0.40;;;4.10;99.90;;;;;;5014662;28;20102;-51
2022/01/09 04:41:54;;;;;;;0.77;0.50;;;4.10;99.90;;;;;;5013387;28;20049;-49
2022/01/09 04:44:20;;;;;;;0.35;0.32;;;4.20;99.90;;;;;;5013436;28;20497;-53
2022/01/09 04:46:53;;;;;;;0.90;0.50;;;4.20;99.90;;;;;;5013719;28;20034;-49
2022/01/09 04:49:23;;;;;;;1.30;0.45;;;4.20;99.90;;;;;;5013217;28;20034;-51
2022/01/09 04:51:48;;;;;;;0.47;0.30;;;4.30;99.90;;;;;;5013083;28;20032;-52
2022/01/09 04:54:14;;;;;;;0.80;0.50;;;4.30;99.90;;;;;;5013211;28;20520;-55
2022/01/09 04:56:40;;;;;;;0.52;0.35;;;4.30;99.90;;;;;;5013158;28;20025;-50
2022/01/09 04:59:05;;;;;;;1.17;0.60;;;4.20;99.90;;;;;;5013071;28;20022;-51
2022/01/09 05:01:31;;;;;;;0.32;0.32;;;4.20;99.90;;;;;;5014227;28;20026;-48
2022/01/09 05:03:57;;;;;;;1.83;0.40;;;4.20;99.90;;;;;;5012971;28;20052;-49
2022/01/09 05:06:22;;;;;;;5.70;0.52;;;4.20;99.90;;;;;;5013017;28;20193;-49
2022/01/09 05:08:48;;;;;;;0.75;0.35;;;4.10;99.90;;;;;;5012839;28;20025;-49
2022/01/09 05:11:14;;;;;;;0.40;0.32;;;4.20;99.90;;;;;;5014517;28;20025;-48
2022/01/09 05:13:39;;;;;;;0.75;0.70;;;4.20;99.90;;;;;;5014101;28;20112;-48
2022/01/09 05:16:05;;;;;;;0.50;0.50;;;4.20;99.90;;;;;;5014071;28;20461;-52
2022/01/09 05:18:33;;;;;;;0.68;0.47;;;4.10;99.90;;;;;;5013050;28;20025;-52
2022/01/09 05:20:58;;;;;;;0.63;0.30;;;4.00;99.90;;;;;;5012753;28;20049;-51
2022/01/09 05:23:24;;;;;;;0.30;0.30;;;4.00;99.90;;;;;;5012748;28;20084;-52
2022/01/09 05:25:49;;;;;;;1.08;0.60;;;4.00;99.90;;;;;;5013965;28;20037;-53
2022/01/09 05:28:15;;;;;;;0.90;0.60;;;4.00;99.90;;;;;;5012902;28;20080;-49
2022/01/09 05:30:40;;;;;;;2.30;0.80;;;4.00;99.90;;;;;;5012419;28;20037;-50
2022/01/09 05:33:06;;;;;;;0.50;0.50;;;3.90;99.90;;;;;;5012517;28;20022;-51
2022/01/09 05:35:32;;;;;;;0.22;0.20;;;3.90;99.90;;;;;;5013394;28;20025;-52
2022/01/09 05:37:57;;;;;;;0.98;0.35;;;3.90;99.90;;;;;;5012379;28;20026;-51
2022/01/09 05:40:23;;;;;;;0.13;0.10;;;3.90;99.90;;;;;;5013685;28;20024;-50
2022/01/09 05:42:49;;;;;;;0.45;0.10;;;4.00;99.90;;;;;;5013715;28;20022;-51
2022/01/09 05:45:17;;;;;;;0.08;0.08;;;4.00;99.90;;;;;;5012490;28;20072;-51
2022/01/09 05:47:44;;;;;;;0.28;0.20;;;4.00;99.90;;;;;;5013570;28;20113;-52
2022/01/09 05:50:09;;;;;;;1.73;0.20;;;4.00;99.90;;;;;;5013906;28;20480;-49
2022/01/09 05:52:35;;;;;;;4.05;0.40;;;3.90;99.90;;;;;;5012670;28;20030;-51
2022/01/09 05:55:01;;;;;;;0.20;0.20;;;4.00;99.90;;;;;;5013595;28;20106;-50
2022/01/09 05:57:26;;;;;;;0.32;0.10;;;3.90;99.90;;;;;;5013512;28;20105;-50
2022/01/09 05:59:52;;;;;;;0.28;0.15;;;4.00;99.90;;;;;;5013655;28;20068;-50
2022/01/09 06:02:17;;;;;;;1.17;0.70;;;3.90;99.90;;;;;;5012277;28;20030;-49
2022/01/09 06:04:44;;;;;;;0.30;0.30;;;3.90;99.90;;;;;;5012517;28;20061;-50
2022/01/09 06:07:09;;;;;;;0.25;0.20;;;3.80;99.90;;;;;;5013530;28;20105;-49
2022/01/09 06:09:35;;;;;;;0.20;0.20;;;3.70;99.90;;;;;;5012432;28;20054;-49
2022/01/09 06:12:01;;;;;;;2.55;0.32;;;3.70;99.90;;;;;;5013364;28;20026;-50
2022/01/09 06:14:26;;;;;;;1.40;0.28;;;3.70;99.90;;;;;;5012215;28;20123;-49
2022/01/09 06:16:52;;;;;;;0.30;0.15;;;3.70;99.90;;;;;;5012159;28;20022;-51
2022/01/09 06:19:18;;;;;;;0.60;0.52;;;3.60;99.90;;;;;;5013363;28;20026;-50
2022/01/09 06:21:44;;;;;;;2.35;0.88;;;3.60;99.90;;;;;;5012148;28;20472;-49
2022/01/09 06:24:10;;;;;;;0.40;0.40;;;3.60;99.90;;;;;;5013289;28;20022;-49
2022/01/09 06:26:36;;;;;;;0.75;0.20;;;3.60;99.90;;;;;;5012069;28;20033;-51
2022/01/09 06:29:01;;;;;;;0.30;0.20;;;3.70;99.90;;;;;;5013526;28;20117;-49
2022/01/09 06:31:27;;;;;;;0.25;0.20;;;3.60;99.90;;;;;;5011983;28;20097;-49
2022/01/09 06:33:53;;;;;;;0.52;0.20;;;3.60;99.90;;;;;;5011974;28;20022;-50
2022/01/09 06:36:18;;;;;;;0.05;0.05;;;3.60;99.90;;;;;;5012354;28;20037;-49
2022/01/09 06:38:44;;;;;;;0.60;0.10;;;3.50;99.90;;;;;;5013262;28;20092;-50
2022/01/09 06:41:10;;;;;;;0.00;0.00;;;3.70;99.90;;;;;;5013429;28;20018;-51
2022/01/09 06:43:35;;;;;;;1.70;0.15;;;3.60;99.90;;;;;;5012437;28;20117;-49
2022/01/09 06:46:01;;;;;;;0.10;0.10;;;3.70;99.90;;;;;;5011893;28;20030;-50
2022/01/09 06:48:26;;;;;;;1.23;0.10;;;3.70;99.90;;;;;;5011962;28;20037;-49
2022/01/09 06:50:52;;;;;;;1.45;0.85;;;3.60;99.90;;;;;;5011773;28;20054;-50
2022/01/09 06:53:18;;;;;;;1.17;0.50;;;3.60;99.90;;;;;;5011813;28;20022;-49
2022/01/09 06:55:43;;;;;;;0.50;0.50;;;3.70;99.90;;;;;;5018217;28;20079;-49
2022/01/09 06:58:09;;;;;;;0.30;0.30;;;3.70;99.90;;;;;;5032546;28;20028;-49
2022/01/09 07:00:35;;;;;;;0.43;0.40;;;3.70;99.90;;;;;;5036274;28;20021;-49
2022/01/09 07:03:00;;;;;;;0.70;0.30;;;3.70;99.90;;;;;;5018664;28;20025;-51
2022/01/09 07:05:26;;;;;;;1.67;0.60;;;3.80;99.90;;;;;;5018479;28;20040;-49
2022/01/09 07:07:52;;;;;;;1.08;0.70;;;3.80;99.90;;;;;;5018615;28;20029;-50
2022/01/09 07:10:17;;;;;;;1.50;0.70;;;3.80;99.90;;;;;;5036698;28;20029;-51
2022/01/09 07:12:43;;;;;;;1.50;0.98;;;3.80;99.90;;;;;;5036322;28;20025;-49
2022/01/09 07:15:09;;;;;;;2.35;1.00;;;3.80;99.90;;;;;;5036591;28;20048;-49
2022/01/09 07:17:35;;;;;;;9.60;1.90;;;3.90;99.90;;;;;;5036179;28;20124;-49
2022/01/09 07:20:01;;;;;;;3.40;1.30;;;3.90;99.90;;;;;;5018279;28;20053;-50
2022/01/09 07:22:27;;;;;;;5.90;1.63;;;3.90;99.90;;;;;;5035844;28;20029;-49
2022/01/09 07:24:53;;;;;;;6.63;1.95;;;4.00;99.90;;;;;;5018247;28;20029;-51
2022/01/09 07:27:19;;;;;;;8.05;1.90;;;4.00;99.90;;;;;;5018184;28;20025;-50
2022/01/09 07:29:44;;;;;;;7.82;2.10;;;4.10;99.90;;;;;;5018344;28;20045;-52
2022/01/09 07:32:10;;;;;;;13.15;3.95;;;4.20;99.90;;;;;;5035890;28;20032;-51
2022/01/09 07:34:36;;;;;;;10.27;2.90;;;4.20;99.90;;;;;;5017963;28;20025;-49
2022/01/09 07:37:01;;;;;;;10.57;4.20;;;4.30;99.90;;;;;;5017941;28;20018;-49
2022/01/09 07:39:28;;;;;;;8.55;2.83;;;4.30;99.90;;;;;;5018049;28;20021;-49
2022/01/09 07:41:54;;;;;;;13.13;3.55;;;4.40;99.90;;;;;;5035551;28;20018;-50
2022/01/09 07:44:20;;;;;;;14.65;3.83;;;4.40;99.90;;;;;;5035474;28;20021;-49
2022/01/09 07:46:46;;;;;;;20.33;6.85;;;4.40;99.90;;;;;;5017990;28;20033;-51
2022/01/09 07:49:11;;;;;;;17.90;7.15;;;4.50;99.90;;;;;;5017673;28;20033;-51
2022/01/09 07:51:37;;;;;;;18.42;6.40;;;4.60;99.90;;;;;;5035267;28;20026;-53
2022/01/09 07:54:03;;;;;;;11.63;4.07;;;4.60;99.90;;;;;;5035330;28;20022;-50
2022/01/09 07:56:28;;;;;;;21.13;5.70;;;4.70;99.90;;;;;;5017429;28;20026;-50
2022/01/09 07:58:54;;;;;;;36.50;11.02;;;4.70;99.90;;;;;;5017695;28;20109;-52
2022/01/09 08:01:20;;;;;;;21.30;6.72;;;4.70;99.90;;;;;;5031740;28;20467;-53
2022/01/09 08:03:45;;;;;;;27.85;5.13;;;4.80;99.90;;;;;;5023848;28;20029;-50
2022/01/09 08:06:11;;;;;;;18.83;6.13;;;4.80;99.90;;;;;;5017346;28;20037;-49
2022/01/09 08:08:36;;;;;;;16.75;4.43;;;4.90;99.90;;;;;;5017215;28;20033;-50
2022/01/09 08:11:02;;;;;;;24.95;5.35;;;5.00;99.90;;;;;;5034216;28;20052;-49
2022/01/09 08:13:28;;;;;;;18.75;5.40;;;5.00;99.90;;;;;;5017853;28;20028;-50
2022/01/09 08:15:53;;;;;;;30.65;5.95;;;5.10;99.90;;;;;;5017494;28;20030;-53
2022/01/09 08:18:19;;;;;;;16.70;3.97;;;5.10;99.90;;;;;;5017060;28;20045;-49
2022/01/09 08:20:53;;;;;;;12.63;4.32;;;5.10;99.90;;;;;;5016943;28;20026;-49
2022/01/09 08:23:18;;;;;;;13.75;4.35;;;5.30;99.90;;;;;;5017510;28;20037;-51
2022/01/09 08:25:45;;;;;;;12.75;3.20;;;5.30;99.90;;;;;;5017470;28;20025;-50
2022/01/09 08:28:11;;;;;;;18.08;3.75;;;5.30;99.90;;;;;;5017571;28;20025;-50
2022/01/09 08:30:37;;;;;;;14.18;3.53;;;5.40;99.90;;;;;;5016718;28;20037;-50
2022/01/09 08:33:03;;;;;;;18.90;4.22;;;5.50;99.90;;;;;;5016779;28;20108;-51
2022/01/09 08:35:28;;;;;;;11.45;3.03;;;5.50;99.90;;;;;;5016761;28;20120;-50
2022/01/09 08:37:54;;;;;;;13.55;4.22;;;5.50;99.90;;;;;;5017047;28;20018;-52
2022/01/09 08:40:22;;;;;;;14.10;3.30;;;5.40;99.90;;;;;;5017856;28;20034;-53
2022/01/09 08:42:49;;;;;;;17.15;3.95;;;5.50;99.90;;;;;;5017225;28;20048;-55
2022/01/09 08:45:16;;;;;;;13.20;4.38;;;5.50;99.90;;;;;;5017061;28;20021;-54
2022/01/09 08:47:43;;;;;;;8.90;3.78;;;5.50;99.90;;;;;;5017251;28;20033;-52
2022/01/09 08:50:10;;;;;;;13.65;3.85;;;5.50;99.90;;;;;;5035033;28;20032;-54
2022/01/09 08:52:36;;;;;;;17.00;3.20;;;5.50;99.90;;;;;;5034350;28;20040;-53
2022/01/09 08:55:07;;;;;;;17.05;4.05;;;5.60;99.90;;;;;;5017305;28;20017;-55
2022/01/09 08:57:32;;;;;;;17.67;3.97;;;5.60;99.90;;;;;;5017142;28;20021;-55
2022/01/09 08:59:58;;;;;;;11.13;3.88;;;5.60;99.90;;;;;;5034544;28;20020;-56
2022/01/09 09:02:24;;;;;;;14.50;5.13;;;5.60;99.90;;;;;;5017593;28;20021;-57
2022/01/09 09:04:49;;;;;;;12.43;5.00;;;5.70;99.90;;;;;;5034190;28;20030;-53
2022/01/09 09:07:18;;;;;;;10.75;4.00;;;5.70;99.90;;;;;;5016566;28;20078;-54
2022/01/09 09:09:44;;;;;;;17.27;4.28;;;5.70;99.90;;;;;;5016231;28;20053;-53
2022/01/09 09:12:10;;;;;;;18.33;6.45;;;5.70;99.90;;;;;;5034366;28;20034;-54
2022/01/09 09:14:36;;;;;;;18.52;4.13;;;5.70;99.90;;;;;;5016289;28;20048;-54
2022/01/09 09:17:14;;;;;;;8.85;3.78;;;5.70;99.90;;;;;;5013189;28;20109;-57
2022/01/09 09:19:39;;;;;;;17.13;4.60;;;5.70;99.90;;;;;;5012946;28;20052;-58
2022/01/09 09:22:05;;;;;;;18.10;5.22;;;5.70;99.90;;;;;;5013461;28;20022;-52
2022/01/09 09:24:31;;;;;;;9.73;2.92;;;5.70;99.90;;;;;;5013260;28;20049;-52
2022/01/09 09:26:56;;;;;;;7.97;3.33;;;5.70;99.90;;;;;;5014525;28;20026;-52
2022/01/09 09:29:22;;;;;;;14.40;4.25;;;5.70;99.90;;;;;;5012735;28;20037;-57
2022/01/09 09:31:48;;;;;;;19.42;4.40;;;5.80;99.90;;;;;;5012908;28;20025;-55
2022/01/09 09:34:13;;;;;;;10.55;3.30;;;5.80;99.90;;;;;;5012782;28;20026;-54
2022/01/09 09:36:39;;;;;;;21.55;4.70;;;5.80;99.90;;;;;;5013863;28;20022;-54
2022/01/09 09:39:08;;;;;;;18.83;4.20;;;5.80;99.90;;;;;;5021360;28;20441;-54
2022/01/09 09:41:35;;;;;;;13.85;3.40;;;5.80;99.90;;;;;;5030784;28;20029;-54
2022/01/09 09:44:02;;;;;;;14.13;3.30;;;5.80;99.90;;;;;;5016510;28;20068;-55
2022/01/09 09:46:28;;;;;;;7.75;2.35;;;5.90;99.90;;;;;;5012751;28;20036;-56
2022/01/09 09:48:54;;;;;;;11.30;3.60;;;5.90;99.90;;;;;;5014507;28;20030;-53
2022/01/09 09:51:24;;;;;;;12.13;3.08;;;6.00;99.90;;;;;;5012824;28;20030;-52
2022/01/09 09:53:50;;;;;;;7.00;2.55;;;5.90;99.90;;;;;;5026086;28;20021;-56
2022/01/09 09:56:15;;;;;;;11.68;2.45;;;6.00;99.90;;;;;;5031451;28;20047;-53
2022/01/09 09:58:41;;;;;;;14.68;3.58;;;6.00;99.90;;;;;;5053476;28;20025;-53
2022/01/09 10:01:20;;;;;;;14.32;3.30;;;6.00;99.90;;;;;;5028774;28;20028;-55
2022/01/09 10:03:54;;;;;;;10.43;2.70;;;6.10;99.90;;;;;;5033300;28;20063;-57
2022/01/09 10:06:59;;;;;;;9.07;1.90;;;6.10;99.90;;;;;;5032116;28;20112;-56
2022/01/09 10:09:25;;;;;;;11.13;2.80;;;6.10;99.90;;;;;;5011557;28;20045;-53
2022/01/09 10:11:54;;;;;;;12.73;2.92;;;6.10;99.90;;;;;;4973982;28;20026;-52
2022/01/09 10:14:33;;;;;;;13.50;2.42;;;6.20;99.90;;;;;;5012118;28;20036;-53
2022/01/09 10:17:12;;;;;;;12.55;2.05;;;6.20;99.90;;;;;;5035630;28;20022;-56
2022/01/09 10:19:40;;;;;;;7.80;2.08;;;6.20;99.90;;;;;;5035252;28;20033;-54
2022/01/09 10:22:06;;;;;;;8.45;2.40;;;6.20;99.90;;;;;;5033165;28;20026;-51
2022/01/09 10:24:43;;;;;;;2.65;1.70;;;6.20;99.90;;;;;;5015339;28;20026;-57
2022/01/09 10:27:09;;;;;;;6.22;2.10;;;6.30;99.90;;;;;;5032881;28;20036;-53
2022/01/09 10:29:34;;;;;;;9.38;2.80;;;6.30;99.90;;;;;;5033177;28;20041;-52
2022/01/09 10:32:00;;;;;;;11.13;2.60;;;6.30;99.90;;;;;;5015214;28;20121;-52
2022/01/09 10:34:25;;;;;;;9.50;2.70;;;6.40;99.90;;;;;;5035100;28;20032;-54
2022/01/09 10:36:52;;;;;;;8.82;2.42;;;6.40;99.90;;;;;;5028899;28;20033;-51
2022/01/09 10:39:26;;;;;;;10.30;2.58;;;6.40;99.90;;;;;;5048075;28;20023;-51
2022/01/09 10:42:01;;;;;;;9.45;2.28;;;6.50;99.90;;;;;;5021351;28;20038;-55
2022/01/09 10:44:31;;;;;;;5.40;2.10;;;6.70;99.90;;;;;;5043781;28;20036;-52
2022/01/09 10:47:12;;;;;;;8.63;2.33;;;6.90;99.90;;;;;;5029541;28;20036;-53
2022/01/09 10:49:45;;;;;;;36.80;8.50;;;6.90;99.90;;;;;;5030868;28;20025;-50
2022/01/09 10:52:38;;;;;;;4.68;2.45;;;7.00;99.90;;;;;;5009619;28;20032;-52
2022/01/09 10:55:06;;;;;;;6.32;2.35;;;7.20;99.90;;;;;;5026684;28;20057;-49
2022/01/09 10:57:36;;;;;;;6.10;1.65;;;7.30;99.90;;;;;;5018628;28;20068;-56
2022/01/09 11:00:16;;;;;;;5.20;1.70;;;7.50;99.90;;;;;;5018129;28;20021;-48
2022/01/09 11:02:45;;;;;;;6.70;1.90;;;7.70;99.90;;;;;;5016089;28;20060;-50
2022/01/09 11:05:10;;;;;;;8.95;2.38;;;7.80;99.90;;;;;;5016491;28;20022;-52
2022/01/09 11:07:36;;;;;;;6.70;2.30;;;8.00;99.90;;;;;;5005894;28;20036;-49
2022/01/09 11:10:07;;;;;;;7.68;2.05;;;8.00;99.90;;;;;;5018948;28;20103;-47
2022/01/09 11:12:42;;;;;;;4.68;1.70;;;8.00;99.90;;;;;;5015047;28;20060;-47
2022/01/09 11:15:12;;;;;;;6.00;1.70;;;8.20;99.90;;;;;;5017048;28;20026;-49
2022/01/09 11:17:40;;;;;;;6.13;2.85;;;8.30;99.90;;;;;;5016486;28;20018;-52
2022/01/09 11:20:06;;;;;;;6.82;3.00;;;8.40;99.90;;;;;;5014987;28;20064;-48
2022/01/09 11:22:32;;;;;;;10.50;2.95;;;8.60;99.90;;;;;;5015353;28;20460;-51
2022/01/09 11:25:09;;;;;;;4.45;1.77;;;8.80;99.90;;;;;;5025079;28;20059;-48
2022/01/09 11:27:54;;;;;;;7.82;3.05;;;9.00;99.90;;;;;;5028560;28;20133;-51
2022/01/09 11:30:29;;;;;;;11.38;3.88;;;8.90;99.90;;;;;;5039428;28;20561;-49
2022/01/09 11:33:19;;;;;;;3.90;1.55;;;8.80;99.90;;;;;;5017981;28;20033;-48
2022/01/09 11:36:13;;;;;;;14.80;7.82;;;8.60;99.90;;;;;;5035974;28;20061;-48
2022/01/09 11:38:58;;;;;;;7.10;2.38;;;8.50;99.90;;;;;;5010433;28;20037;-48
2022/01/09 11:41:29;;;;;;;5.55;2.22;;;8.40;99.90;;;;;;5029027;28;20163;-48
2022/01/09 11:44:09;;;;;;;5.70;1.95;;;8.40;99.90;;;;;;5037537;28;20052;-49
2022/01/09 11:46:53;;;;;;;4.78;2.05;;;8.30;99.90;;;;;;5015668;28;20026;-48
2022/01/09 11:49:20;;;;;;;3.58;1.55;;;8.30;99.90;;;;;;4998818;28;20034;-47
2022/01/09 11:51:52;;;;;;;10.02;1.88;;;8.30;99.90;;;;;;5014745;28;20033;-49
2022/01/09 11:54:19;;;;;;;;;;;8.20;99.90;;;;;;5023635;28;20025;-48
2022/01/09 11:56:51;;;;;;;5.18;1.70;;;8.20;99.90;;;;;;5034000;28;19915;-48
2022/01/09 11:59:27;;;;;;;4.68;1.38;;;8.20;99.90;;;;;;5035398;28;20029;-50
2022/01/09 12:02:04;;;;;;;5.63;1.83;;;8.30;99.90;;;;;;5037195;28;20116;-48
2022/01/09 12:04:33;;;;;;;4.95;1.45;;;8.30;99.90;;;;;;5035466;28;20025;-48
2022/01/09 12:07:01;;;;;;;4.25;1.60;;;8.20;99.90;;;;;;5035268;28;20048;-48
2022/01/09 12:09:35;;;;;;;8.98;1.92;;;8.30;99.90;;;;;;5017181;28;20116;-48
2022/01/09 12:12:04;;;;;;;6.28;1.80;;;8.30;99.90;;;;;;5017144;28;20025;-48
2022/01/09 12:14:41;;;;;;;5.60;1.55;;;8.20;99.90;;;;;;5035272;28;20056;-49
2022/01/09 12:17:33;;;;;;;6.00;1.55;;;8.30;99.90;;;;;;5017220;28;20049;-48
2022/01/09 12:20:26;;;;;;;7.13;2.80;;;8.10;99.90;;;;;;5017673;28;20048;-51
2022/01/09 12:23:02;;;;;;;3.83;1.65;;;8.10;99.90;;;;;;5027922;28;20033;-47
2022/01/09 12:25:33;;;;;;;4.30;1.85;;;8.00;99.90;;;;;;5017398;28;20021;-48
2022/01/09 12:28:08;;;;;;;9.27;2.28;;;8.00;99.90;;;;;;5016971;28;20032;-49
2022/01/09 12:30:44;;;;;;;7.25;2.47;;;8.10;99.90;;;;;;5034570;28;20065;-48
2022/01/09 12:33:14;;;;;;;7.95;1.50;;;8.20;99.90;;;;;;5017886;28;20032;-47
2022/01/09 12:35:54;;;;;;;13.23;1.67;;;8.20;99.90;;;;;;5017734;28;20020;-49
2022/01/09 12:38:23;;;;;;;8.40;1.92;;;8.20;99.90;;;;;;5017564;28;20021;-50
2022/01/09 12:40:58;;;;;;;8.32;1.67;;;8.10;99.90;;;;;;5016852;28;20068;-48
2022/01/09 12:43:26;;;;;;;7.95;1.27;;;8.10;99.90;;;;;;5016736;28;20033;-49
2022/01/09 12:45:52;;;;;;;4.78;1.85;;;8.20;99.90;;;;;;5016754;28;20030;-48
2022/01/09 12:48:29;;;;;;;9.00;1.73;;;8.20;99.90;;;;;;5034356;28;20025;-47
2022/01/09 12:51:05;;;;;;;4.05;1.63;;;8.10;99.90;;;;;;5034292;28;20113;-50
2022/01/09 12:53:39;;;;;;;6.40;2.13;;;8.00;99.90;;;;;;5034638;28;20056;-48
2022/01/09 12:56:10;;;;;;;6.32;1.63;;;8.10;99.90;;;;;;5016096;28;20022;-47
2022/01/09 12:58:43;;;;;;;6.75;1.50;;;8.00;99.90;;;;;;5017251;28;20125;-50
2022/01/09 13:01:12;;;;;;;6.90;2.25;;;8.00;99.90;;;;;;5017104;28;20079;-51
2022/01/09 13:03:40;;;;;;;7.78;2.28;;;7.90;99.90;;;;;;5034383;28;20065;-51
2022/01/09 13:06:08;;;;;;;6.85;1.88;;;7.90;99.90;;;;;;5034062;28;20112;-52
2022/01/09 13:08:40;;;;;;;5.65;1.65;;;7.80;99.90;;;;;;5016271;28;20036;-51